createdAt,value
2023-04-06T00:01:18.652Z,11.80
2023-04-06T00:03:46.010Z,9.00
2023-04-06T00:06:14.939Z,9.47
2023-04-06T00:08:44.214Z,9.87
2023-04-06T00:11:11.461Z,11.10
2023-04-06T00:13:38.803Z,8.30
2023-04-06T00:16:07.321Z,8.57
2023-04-06T00:18:35.211Z,8.77
2023-04-06T00:21:02.494Z,9.97
2023-04-06T00:23:29.878Z,9.77
2023-04-06T00:25:57.160Z,10.07
2023-04-06T00:28:27.413Z,11.73
2023-04-06T00:30:56.539Z,10.40
2023-04-06T00:33:24.531Z,9.83
2023-04-06T00:35:52.173Z,9.93
2023-04-06T00:38:20.471Z,10.57
2023-04-06T00:40:48.004Z,11.90
2023-04-06T00:43:16.378Z,12.77
2023-04-06T00:45:43.844Z,13.00
2023-04-06T00:48:11.933Z,10.50
2023-04-06T00:50:39.306Z,12.13
2023-04-06T00:53:06.601Z,9.50
2023-04-06T00:55:33.791Z,9.63
2023-04-06T00:58:02.434Z,9.60
2023-04-06T01:00:34.892Z,9.53
2023-04-06T01:03:04.695Z,8.93
2023-04-06T01:05:41.758Z,10.60
2023-04-06T01:08:17.656Z,11.73
2023-04-06T01:10:45.968Z,8.90
2023-04-06T01:13:25.223Z,8.07
2023-04-06T01:15:55.658Z,6.47
2023-04-06T01:18:32.703Z,9.63
2023-04-06T01:21:16.909Z,8.20
2023-04-06T01:24:07.282Z,8.90
2023-04-06T01:26:47.083Z,8.90
2023-04-06T01:29:14.375Z,12.23
2023-04-06T01:31:41.592Z,9.77
2023-04-06T01:34:09.192Z,8.77
2023-04-06T01:36:36.561Z,11.00
2023-04-06T01:39:19.100Z,9.33
2023-04-06T01:41:48.378Z,9.00
2023-04-06T01:44:20.051Z,9.27
2023-04-06T01:46:53.671Z,8.80
2023-04-06T01:49:21.536Z,8.50
2023-04-06T01:51:55.464Z,6.90
2023-04-06T01:54:23.404Z,7.67
2023-04-06T01:57:12.165Z,7.83
2023-04-06T01:59:47.285Z,7.67
2023-04-06T02:02:40.804Z,6.77
2023-04-06T02:05:15.642Z,7.97
2023-04-06T02:07:43.438Z,8.67
2023-04-06T02:10:15.739Z,8.50
2023-04-06T02:12:45.092Z,8.23
2023-04-06T02:15:18.462Z,6.87
2023-04-06T02:17:46.186Z,9.17
2023-04-06T02:20:14.000Z,7.10
2023-04-06T02:22:41.815Z,7.63
2023-04-06T02:25:09.977Z,7.80
2023-04-06T02:27:37.771Z,7.20
2023-04-06T02:30:06.270Z,8.00
2023-04-06T02:32:33.678Z,8.17
2023-04-06T02:35:02.341Z,7.77
2023-04-06T02:37:31.170Z,7.20
2023-04-06T02:40:00.075Z,6.57
2023-04-06T02:42:29.329Z,7.53
2023-04-06T02:44:57.171Z,8.73
2023-04-06T02:47:28.428Z,10.77
2023-04-06T02:49:55.697Z,7.00
2023-04-06T02:52:23.117Z,7.57
2023-04-06T02:54:52.363Z,8.00
2023-04-06T02:57:26.370Z,8.30
2023-04-06T02:59:53.863Z,8.10
2023-04-06T03:02:27.472Z,8.63
2023-04-06T03:05:04.877Z,8.10
2023-04-06T03:07:37.023Z,8.47
2023-04-06T03:10:05.350Z,7.87
2023-04-06T03:12:34.035Z,7.80
2023-04-06T03:15:19.861Z,9.43
2023-04-06T03:17:52.296Z,9.73
2023-04-06T03:20:37.754Z,7.33
2023-04-06T03:23:06.190Z,9.23
2023-04-06T03:25:41.014Z,7.13
2023-04-06T03:28:11.036Z,8.23
2023-04-06T03:30:47.735Z,10.70
2023-04-06T03:33:19.146Z,13.27
2023-04-06T03:35:54.313Z,14.60
2023-04-06T03:38:24.112Z,16.97
2023-04-06T03:40:51.412Z,20.53
2023-04-06T03:43:23.415Z,16.53
2023-04-06T03:45:51.277Z,16.47
2023-04-06T03:48:18.647Z,16.50
2023-04-06T03:50:46.077Z,15.53
2023-04-06T03:53:13.391Z,18.10
2023-04-06T03:55:40.955Z,17.33
2023-04-06T03:58:08.250Z,13.30
2023-04-06T04:00:35.506Z,12.77
2023-04-06T04:03:03.732Z,9.33
2023-04-06T04:05:31.462Z,8.37
2023-04-06T04:07:58.664Z,11.00
2023-04-06T04:10:28.038Z,7.27
2023-04-06T04:12:55.440Z,11.97
2023-04-06T04:15:22.712Z,13.83
2023-04-06T04:17:50.709Z,11.60
2023-04-06T04:20:18.469Z,12.93
2023-04-06T04:22:46.285Z,9.80
2023-04-06T04:25:14.357Z,11.77
2023-04-06T04:27:46.791Z,10.70
2023-04-06T04:30:15.033Z,11.73
2023-04-06T04:32:43.008Z,10.20
2023-04-06T04:35:11.294Z,10.40
2023-04-06T04:37:42.721Z,11.17
2023-04-06T04:40:12.219Z,7.30
2023-04-06T04:42:52.121Z,9.33
2023-04-06T04:45:29.461Z,11.20
2023-04-06T04:47:58.912Z,11.63
2023-04-06T04:50:32.199Z,13.77
2023-04-06T04:53:00.274Z,17.00
2023-04-06T04:55:28.691Z,17.67
2023-04-06T04:57:58.879Z,29.83
2023-04-06T05:00:40.115Z,27.10
2023-04-06T05:03:08.126Z,34.00
2023-04-06T05:05:38.202Z,31.27
2023-04-06T05:08:07.367Z,30.23
2023-04-06T05:10:43.204Z,22.97
2023-04-06T05:13:10.993Z,29.10
2023-04-06T05:15:41.663Z,35.90
2023-04-06T05:18:20.675Z,29.40
2023-04-06T05:20:48.613Z,36.20
2023-04-06T05:23:16.100Z,30.77
2023-04-06T05:25:44.664Z,37.20
2023-04-06T05:28:20.065Z,37.07
2023-04-06T05:30:47.350Z,23.43
2023-04-06T05:33:16.406Z,15.80
2023-04-06T05:36:04.935Z,16.87
2023-04-06T05:38:34.491Z,12.97
2023-04-06T05:41:09.828Z,15.13
2023-04-06T05:43:38.342Z,15.27
2023-04-06T05:46:06.342Z,16.57
2023-04-06T05:48:33.702Z,14.87
2023-04-06T05:51:03.221Z,15.73
2023-04-06T05:53:39.706Z,14.20
2023-04-06T05:56:07.864Z,15.13
2023-04-06T05:58:36.555Z,15.20
2023-04-06T06:01:04.894Z,14.80
2023-04-06T06:03:41.017Z,14.70
2023-04-06T06:06:08.386Z,16.67
2023-04-06T06:09:02.330Z,14.87
2023-04-06T06:11:34.304Z,14.47
2023-04-06T06:14:03.643Z,19.43
2023-04-06T06:16:35.444Z,11.83
2023-04-06T06:19:03.565Z,13.07
2023-04-06T06:21:32.728Z,11.93
2023-04-06T11:52:18.939Z,12.53
2023-04-06T11:54:48.742Z,13.77
2023-04-06T11:57:17.841Z,10.02
2023-04-06T11:59:45.417Z,6.82
2023-04-06T12:02:12.926Z,10.00
2023-04-06T12:04:40.876Z,5.40
2023-04-06T12:07:08.120Z,4.68
2023-04-06T12:09:37.192Z,12.93
2023-04-06T12:12:05.295Z,6.10
2023-04-06T12:14:32.710Z,12.50
2023-04-06T12:17:00.066Z,5.82
2023-04-06T12:19:27.516Z,11.93
2023-04-06T12:21:55.796Z,9.63
2023-04-06T12:24:23.373Z,8.67
2023-04-06T12:26:54.101Z,8.20
2023-04-06T12:29:27.229Z,6.90
2023-04-06T12:31:54.599Z,5.87
2023-04-06T12:34:22.300Z,6.70
2023-04-06T12:36:49.463Z,6.20
2023-04-06T12:39:19.850Z,6.88
2023-04-06T12:41:47.840Z,6.25
2023-04-06T12:44:15.039Z,7.90
2023-04-06T12:46:42.453Z,5.95
2023-04-06T12:49:09.876Z,6.10
2023-04-06T12:51:37.264Z,5.68
2023-04-06T12:54:04.633Z,7.65
2023-04-06T12:56:32.560Z,7.45
2023-04-06T12:58:59.921Z,5.85
2023-04-06T13:01:29.300Z,5.30
2023-04-06T13:03:58.981Z,10.75
2023-04-06T13:06:28.898Z,7.55
2023-04-06T13:08:56.672Z,7.30
2023-04-06T13:11:27.002Z,5.32
2023-04-06T13:13:55.852Z,5.10
2023-04-06T13:16:23.339Z,4.53
2023-04-06T13:18:51.450Z,4.55
2023-04-06T13:21:20.218Z,6.18
2023-04-06T13:23:47.595Z,4.07
2023-04-06T13:26:16.226Z,4.25
2023-04-06T13:28:44.202Z,6.28
2023-04-06T13:31:11.578Z,4.80
2023-04-06T13:33:41.987Z,5.78
2023-04-06T13:36:09.840Z,4.82
2023-04-06T13:38:40.009Z,4.63
2023-04-06T13:41:07.562Z,4.43
2023-04-06T13:43:34.805Z,4.50
2023-04-06T13:46:02.539Z,4.50
2023-04-06T13:48:30.058Z,4.65
2023-04-06T13:50:57.250Z,4.55
2023-04-06T13:53:24.576Z,9.85
2023-04-06T13:55:56.750Z,4.45
2023-04-06T13:58:24.576Z,4.68
2023-04-06T14:00:52.180Z,5.10
2023-04-06T14:03:20.447Z,4.20
2023-04-06T14:05:48.201Z,4.13
2023-04-06T14:08:15.697Z,4.40
2023-04-06T14:10:43.570Z,17.52
2023-04-06T14:13:11.632Z,4.55
2023-04-06T14:15:39.380Z,4.57
2023-04-06T14:18:07.372Z,4.35
2023-04-06T14:20:35.203Z,4.53
2023-04-06T14:23:03.367Z,4.47
2023-04-06T14:25:33.161Z,4.28
2023-04-06T14:28:00.915Z,6.75
2023-04-06T14:30:30.018Z,4.82
2023-04-06T14:33:01.049Z,4.72
2023-04-06T14:35:29.428Z,4.28
2023-04-06T14:38:00.469Z,6.03
2023-04-06T14:40:27.794Z,4.00
2023-04-06T14:42:56.895Z,4.47
2023-04-06T14:45:24.395Z,4.43
2023-04-06T14:47:51.785Z,4.32
2023-04-06T14:50:18.956Z,4.35
2023-04-06T14:52:47.930Z,4.53
2023-04-06T14:55:15.254Z,4.80
2023-04-06T14:57:42.454Z,3.72
2023-04-06T15:00:10.746Z,4.20
2023-04-06T15:02:38.465Z,5.55
2023-04-06T15:05:06.694Z,7.55
2023-04-06T15:07:33.956Z,4.65
2023-04-06T15:10:01.195Z,4.88
2023-04-06T15:12:30.562Z,4.38
2023-04-06T15:14:57.893Z,6.60
2023-04-06T15:17:27.675Z,4.60
2023-04-06T15:19:55.772Z,4.07
2023-04-06T15:22:22.916Z,5.00
2023-04-06T15:24:50.334Z,6.30
2023-04-06T15:27:17.660Z,7.13
2023-04-06T15:29:44.937Z,6.20
2023-04-06T15:32:12.818Z,7.67
2023-04-06T15:34:40.559Z,6.70
2023-04-06T15:37:08.400Z,6.10
2023-04-06T15:39:37.381Z,5.53
2023-04-06T15:42:05.132Z,7.30
2023-04-06T15:44:32.467Z,5.43
2023-04-06T15:47:00.355Z,6.13
2023-04-06T15:49:27.707Z,7.13
2023-04-06T15:51:54.895Z,6.63
2023-04-06T15:54:22.202Z,8.17
2023-04-06T15:56:50.794Z,6.93
2023-04-06T15:59:18.291Z,10.47
2023-04-06T16:01:47.412Z,8.40
2023-04-06T16:04:15.332Z,10.47
2023-04-06T16:06:42.774Z,7.37
2023-04-06T16:09:10.079Z,8.63
2023-04-06T16:11:37.348Z,6.87
2023-04-06T16:14:05.347Z,8.70
2023-04-06T16:16:32.616Z,16.90
2023-04-06T16:18:59.986Z,8.57
2023-04-06T16:21:28.233Z,7.93
2023-04-06T16:23:56.126Z,7.07
2023-04-06T16:26:24.811Z,7.17
2023-04-06T16:28:52.376Z,8.33
2023-04-06T16:31:24.538Z,8.10
2023-04-06T16:33:57.291Z,8.97
2023-04-06T16:36:30.031Z,5.40
2023-04-06T16:38:58.612Z,7.03
2023-04-06T16:41:27.877Z,5.40
2023-04-06T16:43:57.550Z,5.37
2023-04-06T16:46:33.102Z,4.77
2023-04-06T16:49:01.515Z,5.93
2023-04-06T16:51:29.696Z,5.73
2023-04-06T16:53:57.044Z,6.80
2023-04-06T16:56:24.417Z,5.97
2023-04-06T16:58:52.315Z,6.73
2023-04-06T17:01:21.668Z,8.53
2023-04-06T17:03:49.387Z,8.90
2023-04-06T17:06:17.525Z,5.57
2023-04-06T17:08:45.998Z,6.10
2023-04-06T17:11:16.089Z,6.47
